sensor_id;sensor_type;location;lat;lon;timestamp;P1;durP1;ratioP1;P2;durP2;ratioP2
74945;SDS011;63509;45.250;38.102;2024-02-23T00:00:59;13.00;;;6.32;;
74945;SDS011;63509;45.250;38.102;2024-02-23T00:03:25;14.25;;;5.93;;
74945;SDS011;63509;45.250;38.102;2024-02-23T00:05:51;11.25;;;5.15;;
74945;SDS011;63509;45.250;38.102;2024-02-23T00:08:17;11.88;;;6.32;;
74945;SDS011;63509;45.250;38.102;2024-02-23T00:10:44;11.00;;;5.85;;
74945;SDS011;63509;45.250;38.102;2024-02-23T00:13:11;19.35;;;9.40;;
74945;SDS011;63509;45.250;38.102;2024-02-23T00:15:37;10.32;;;5.32;;
74945;SDS011;63509;45.250;38.102;2024-02-23T00:18:03;22.27;;;7.55;;
74945;SDS011;63509;45.250;38.102;2024-02-23T00:20:30;19.20;;;6.78;;
74945;SDS011;63509;45.250;38.102;2024-02-23T00:22:56;18.67;;;6.78;;
74945;SDS011;63509;45.250;38.102;2024-02-23T00:25:22;10.52;;;5.53;;
74945;SDS011;63509;45.250;38.102;2024-02-23T00:27:50;10.40;;;5.68;;
74945;SDS011;63509;45.250;38.102;2024-02-23T00:30:22;12.98;;;6.15;;
74945;SDS011;63509;45.250;38.102;2024-02-23T00:32:48;14.50;;;5.82;;
74945;SDS011;63509;45.250;38.102;2024-02-23T00:35:14;14.82;;;6.35;;
74945;SDS011;63509;45.250;38.102;2024-02-23T00:37:40;14.52;;;6.28;;
74945;SDS011;63509;45.250;38.102;2024-02-23T00:40:06;13.63;;;5.85;;
74945;SDS011;63509;45.250;38.102;2024-02-23T00:42:34;12.82;;;6.82;;
74945;SDS011;63509;45.250;38.102;2024-02-23T00:45:00;14.38;;;6.00;;
74945;SDS011;63509;45.250;38.102;2024-02-23T00:47:26;12.63;;;6.85;;
74945;SDS011;63509;45.250;38.102;2024-02-23T00:49:53;16.88;;;6.32;;
74945;SDS011;63509;45.250;38.102;2024-02-23T00:52:20;14.98;;;5.32;;
74945;SDS011;63509;45.250;38.102;2024-02-23T00:54:46;18.48;;;6.97;;
74945;SDS011;63509;45.250;38.102;2024-02-23T00:57:13;18.60;;;7.07;;
74945;SDS011;63509;45.250;38.102;2024-02-23T00:59:39;14.48;;;8.35;;
74945;SDS011;63509;45.250;38.102;2024-02-23T01:02:08;13.43;;;6.13;;
74945;SDS011;63509;45.250;38.102;2024-02-23T01:04:36;16.65;;;7.13;;
74945;SDS011;63509;45.250;38.102;2024-02-23T01:07:07;12.93;;;5.80;;
74945;SDS011;63509;45.250;38.102;2024-02-23T01:09:33;12.10;;;5.40;;
74945;SDS011;63509;45.250;38.102;2024-02-23T01:12:00;14.95;;;6.53;;
74945;SDS011;63509;45.250;38.102;2024-02-23T01:14:31;20.42;;;7.18;;
74945;SDS011;63509;45.250;38.102;2024-02-23T01:16:58;11.98;;;7.35;;
74945;SDS011;63509;45.250;38.102;2024-02-23T01:19:28;15.85;;;7.15;;
74945;SDS011;63509;45.250;38.102;2024-02-23T01:21:54;8.20;;;7.18;;
74945;SDS011;63509;45.250;38.102;2024-02-23T01:24:30;14.10;;;6.00;;
74945;SDS011;63509;45.250;38.102;2024-02-23T01:26:58;16.67;;;8.63;;
74945;SDS011;63509;45.250;38.102;2024-02-23T01:29:25;21.05;;;7.30;;
74945;SDS011;63509;45.250;38.102;2024-02-23T01:31:51;14.52;;;7.93;;
74945;SDS011;63509;45.250;38.102;2024-02-23T01:34:20;13.23;;;7.43;;
74945;SDS011;63509;45.250;38.102;2024-02-23T01:36:47;35.38;;;8.38;;
74945;SDS011;63509;45.250;38.102;2024-02-23T01:39:13;25.65;;;8.45;;
74945;SDS011;63509;45.250;38.102;2024-02-23T01:41:39;15.45;;;7.43;;
74945;SDS011;63509;45.250;38.102;2024-02-23T01:44:06;17.73;;;6.53;;
74945;SDS011;63509;45.250;38.102;2024-02-23T01:46:32;15.60;;;6.53;;
74945;SDS011;63509;45.250;38.102;2024-02-23T01:48:58;24.48;;;8.88;;
74945;SDS011;63509;45.250;38.102;2024-02-23T01:51:25;15.15;;;7.50;;
74945;SDS011;63509;45.250;38.102;2024-02-23T01:53:51;15.88;;;7.10;;
74945;SDS011;63509;45.250;38.102;2024-02-23T01:56:17;13.85;;;7.55;;
74945;SDS011;63509;45.250;38.102;2024-02-23T01:58:45;16.85;;;6.93;;
74945;SDS011;63509;45.250;38.102;2024-02-23T02:01:12;18.65;;;7.15;;
74945;SDS011;63509;45.250;38.102;2024-02-23T02:03:39;17.10;;;7.63;;
74945;SDS011;63509;45.250;38.102;2024-02-23T02:06:05;14.52;;;8.25;;
74945;SDS011;63509;45.250;38.102;2024-02-23T02:08:33;11.88;;;6.72;;
74945;SDS011;63509;45.250;38.102;2024-02-23T02:11:00;17.90;;;6.20;;
74945;SDS011;63509;45.250;38.102;2024-02-23T02:13:29;17.58;;;8.30;;
74945;SDS011;63509;45.250;38.102;2024-02-23T02:16:00;17.08;;;8.02;;
74945;SDS011;63509;45.250;38.102;2024-02-23T02:18:27;16.48;;;6.72;;
74945;SDS011;63509;45.250;38.102;2024-02-23T02:20:54;16.13;;;8.75;;
74945;SDS011;63509;45.250;38.102;2024-02-23T02:23:22;19.40;;;8.20;;
74945;SDS011;63509;45.250;38.102;2024-02-23T02:25:52;14.10;;;6.18;;
74945;SDS011;63509;45.250;38.102;2024-02-23T02:28:22;21.48;;;7.88;;
74945;SDS011;63509;45.250;38.102;2024-02-23T02:30:49;15.93;;;7.65;;
74945;SDS011;63509;45.250;38.102;2024-02-23T02:33:16;14.40;;;5.60;;
74945;SDS011;63509;45.250;38.102;2024-02-23T02:35:42;12.30;;;7.28;;
74945;SDS011;63509;45.250;38.102;2024-02-23T02:38:09;16.55;;;8.93;;
74945;SDS011;63509;45.250;38.102;2024-02-23T02:40:36;16.00;;;8.55;;
74945;SDS011;63509;45.250;38.102;2024-02-23T02:43:03;19.90;;;9.10;;
74945;SDS011;63509;45.250;38.102;2024-02-23T02:45:29;17.65;;;7.43;;
74945;SDS011;63509;45.250;38.102;2024-02-23T02:47:55;21.00;;;7.50;;
74945;SDS011;63509;45.250;38.102;2024-02-23T02:50:25;15.80;;;8.15;;
74945;SDS011;63509;45.250;38.102;2024-02-23T02:52:51;19.33;;;9.52;;
74945;SDS011;63509;45.250;38.102;2024-02-23T02:55:17;20.00;;;8.68;;
74945;SDS011;63509;45.250;38.102;2024-02-23T02:57:46;13.55;;;7.35;;
74945;SDS011;63509;45.250;38.102;2024-02-23T03:00:12;16.55;;;8.45;;
74945;SDS011;63509;45.250;38.102;2024-02-23T03:02:38;11.27;;;5.65;;
74945;SDS011;63509;45.250;38.102;2024-02-23T03:05:05;13.27;;;7.53;;
74945;SDS011;63509;45.250;38.102;2024-02-23T03:07:31;12.80;;;7.45;;
74945;SDS011;63509;45.250;38.102;2024-02-23T03:09:57;25.88;;;7.90;;
74945;SDS011;63509;45.250;38.102;2024-02-23T03:12:24;16.42;;;8.38;;
74945;SDS011;63509;45.250;38.102;2024-02-23T03:14:50;15.55;;;8.95;;
74945;SDS011;63509;45.250;38.102;2024-02-23T03:17:16;23.05;;;10.73;;
74945;SDS011;63509;45.250;38.102;2024-02-23T03:19:42;15.13;;;7.93;;
74945;SDS011;63509;45.250;38.102;2024-02-23T03:22:08;21.40;;;9.82;;
74945;SDS011;63509;45.250;38.102;2024-02-23T03:24:34;19.70;;;9.45;;
74945;SDS011;63509;45.250;38.102;2024-02-23T03:27:00;21.92;;;8.38;;
74945;SDS011;63509;45.250;38.102;2024-02-23T03:29:27;17.75;;;9.73;;
74945;SDS011;63509;45.250;38.102;2024-02-23T03:31:57;17.60;;;8.90;;
74945;SDS011;63509;45.250;38.102;2024-02-23T03:34:24;21.90;;;7.05;;
74945;SDS011;63509;45.250;38.102;2024-02-23T03:36:50;19.52;;;8.98;;
74945;SDS011;63509;45.250;38.102;2024-02-23T03:39:17;18.45;;;7.25;;
74945;SDS011;63509;45.250;38.102;2024-02-23T03:41:43;17.80;;;10.13;;
74945;SDS011;63509;45.250;38.102;2024-02-23T03:44:09;18.73;;;9.25;;
74945;SDS011;63509;45.250;38.102;2024-02-23T03:46:35;18.83;;;9.18;;
74945;SDS011;63509;45.250;38.102;2024-02-23T03:49:02;21.20;;;9.27;;
74945;SDS011;63509;45.250;38.102;2024-02-23T03:51:28;18.08;;;7.65;;
74945;SDS011;63509;45.250;38.102;2024-02-23T03:53:54;24.80;;;8.85;;
74945;SDS011;63509;45.250;38.102;2024-02-23T03:56:20;29.05;;;9.80;;
74945;SDS011;63509;45.250;38.102;2024-02-23T03:58:46;17.40;;;8.57;;
74945;SDS011;63509;45.250;38.102;2024-02-23T04:01:12;20.83;;;10.82;;
74945;SDS011;63509;45.250;38.102;2024-02-23T04:03:38;16.13;;;8.85;;
74945;SDS011;63509;45.250;38.102;2024-02-23T04:06:04;18.98;;;8.55;;
74945;SDS011;63509;45.250;38.102;2024-02-23T04:08:31;26.05;;;9.65;;
74945;SDS011;63509;45.250;38.102;2024-02-23T04:10:57;15.75;;;8.98;;
74945;SDS011;63509;45.250;38.102;2024-02-23T04:13:23;18.88;;;9.25;;
74945;SDS011;63509;45.250;38.102;2024-02-23T04:15:49;46.17;;;8.30;;
74945;SDS011;63509;45.250;38.102;2024-02-23T04:18:15;31.95;;;10.15;;
74945;SDS011;63509;45.250;38.102;2024-02-23T04:20:42;14.38;;;7.97;;
74945;SDS011;63509;45.250;38.102;2024-02-23T04:23:08;37.90;;;11.45;;
74945;SDS011;63509;45.250;38.102;2024-02-23T04:25:34;30.30;;;9.27;;
74945;SDS011;63509;45.250;38.102;2024-02-23T04:28:01;19.33;;;8.82;;
74945;SDS011;63509;45.250;38.102;2024-02-23T04:30:27;26.80;;;11.55;;
74945;SDS011;63509;45.250;38.102;2024-02-23T04:32:53;18.98;;;8.50;;
74945;SDS011;63509;45.250;38.102;2024-02-23T04:35:19;15.02;;;9.48;;
74945;SDS011;63509;45.250;38.102;2024-02-23T04:37:45;19.05;;;7.93;;
74945;SDS011;63509;45.250;38.102;2024-02-23T04:40:11;25.55;;;9.30;;
74945;SDS011;63509;45.250;38.102;2024-02-23T04:42:38;28.83;;;8.50;;
74945;SDS011;63509;45.250;38.102;2024-02-23T04:45:04;33.90;;;9.38;;
74945;SDS011;63509;45.250;38.102;2024-02-23T04:47:31;22.15;;;8.40;;
74945;SDS011;63509;45.250;38.102;2024-02-23T04:49:57;21.98;;;9.70;;
74945;SDS011;63509;45.250;38.102;2024-02-23T04:52:24;17.45;;;9.48;;
74945;SDS011;63509;45.250;38.102;2024-02-23T04:54:51;21.15;;;9.77;;
74945;SDS011;63509;45.250;38.102;2024-02-23T04:57:17;21.33;;;8.85;;
74945;SDS011;63509;45.250;38.102;2024-02-23T04:59:43;15.95;;;8.82;;
74945;SDS011;63509;45.250;38.102;2024-02-23T05:02:09;19.10;;;7.95;;
74945;SDS011;63509;45.250;38.102;2024-02-23T05:04:35;24.00;;;9.93;;
74945;SDS011;63509;45.250;38.102;2024-02-23T05:07:01;29.08;;;11.65;;
74945;SDS011;63509;45.250;38.102;2024-02-23T05:09:30;39.65;;;13.32;;
74945;SDS011;63509;45.250;38.102;2024-02-23T05:11:57;19.83;;;8.70;;
74945;SDS011;63509;45.250;38.102;2024-02-23T05:14:23;44.35;;;8.88;;
74945;SDS011;63509;45.250;38.102;2024-02-23T05:16:49;32.97;;;9.75;;
74945;SDS011;63509;45.250;38.102;2024-02-23T05:19:15;16.85;;;8.55;;
74945;SDS011;63509;45.250;38.102;2024-02-23T05:21:42;22.70;;;9.32;;
74945;SDS011;63509;45.250;38.102;2024-02-23T05:24:10;16.75;;;9.63;;
74945;SDS011;63509;45.250;38.102;2024-02-23T05:26:37;41.15;;;11.23;;
74945;SDS011;63509;45.250;38.102;2024-02-23T05:29:03;22.85;;;9.40;;
74945;SDS011;63509;45.250;38.102;2024-02-23T05:31:45;21.95;;;9.60;;
74945;SDS011;63509;45.250;38.102;2024-02-23T05:34:12;30.30;;;9.45;;
74945;SDS011;63509;45.250;38.102;2024-02-23T05:36:38;18.40;;;8.63;;
74945;SDS011;63509;45.250;38.102;2024-02-23T05:39:04;35.75;;;11.60;;
74945;SDS011;63509;45.250;38.102;2024-02-23T05:41:33;20.42;;;10.13;;
74945;SDS011;63509;45.250;38.102;2024-02-23T05:43:59;20.65;;;10.57;;
74945;SDS011;63509;45.250;38.102;2024-02-23T05:46:26;18.45;;;10.23;;
74945;SDS011;63509;45.250;38.102;2024-02-23T05:48:53;23.80;;;8.23;;
74945;SDS011;63509;45.250;38.102;2024-02-23T05:51:19;18.92;;;9.50;;
74945;SDS011;63509;45.250;38.102;2024-02-23T05:53:45;29.17;;;11.55;;
74945;SDS011;63509;45.250;38.102;2024-02-23T05:56:11;25.45;;;10.25;;
74945;SDS011;63509;45.250;38.102;2024-02-23T05:58:37;23.63;;;10.80;;
74945;SDS011;63509;45.250;38.102;2024-02-23T06:01:04;25.67;;;11.88;;
74945;SDS011;63509;45.250;38.102;2024-02-23T06:03:30;21.73;;;11.70;;
74945;SDS011;63509;45.250;38.102;2024-02-23T06:05:56;25.55;;;10.88;;
74945;SDS011;63509;45.250;38.102;2024-02-23T06:08:22;22.77;;;10.52;;
74945;SDS011;63509;45.250;38.102;2024-02-23T06:10:48;17.52;;;9.20;;
74945;SDS011;63509;45.250;38.102;2024-02-23T06:13:15;23.33;;;10.48;;
74945;SDS011;63509;45.250;38.102;2024-02-23T06:15:42;34.53;;;9.75;;
74945;SDS011;63509;45.250;38.102;2024-02-23T06:18:09;27.23;;;9.45;;
74945;SDS011;63509;45.250;38.102;2024-02-23T06:20:35;24.95;;;8.38;;
74945;SDS011;63509;45.250;38.102;2024-02-23T06:23:02;25.88;;;10.15;;
74945;SDS011;63509;45.250;38.102;2024-02-23T06:25:32;27.85;;;11.10;;
74945;SDS011;63509;45.250;38.102;2024-02-23T06:27:58;31.77;;;9.93;;
74945;SDS011;63509;45.250;38.102;2024-02-23T06:30:25;39.88;;;10.60;;
74945;SDS011;63509;45.250;38.102;2024-02-23T06:32:51;24.05;;;11.18;;
74945;SDS011;63509;45.250;38.102;2024-02-23T06:35:18;21.45;;;9.38;;
74945;SDS011;63509;45.250;38.102;2024-02-23T06:37:44;23.88;;;10.82;;
74945;SDS011;63509;45.250;38.102;2024-02-23T06:40:10;26.15;;;11.15;;
74945;SDS011;63509;45.250;38.102;2024-02-23T06:42:37;30.05;;;11.65;;
74945;SDS011;63509;45.250;38.102;2024-02-23T06:45:03;21.73;;;9.50;;
74945;SDS011;63509;45.250;38.102;2024-02-23T06:47:30;26.42;;;11.15;;
74945;SDS011;63509;45.250;38.102;2024-02-23T06:49:56;23.83;;;9.50;;
74945;SDS011;63509;45.250;38.102;2024-02-23T06:52:22;39.22;;;11.60;;
74945;SDS011;63509;45.250;38.102;2024-02-23T06:54:48;29.38;;;12.30;;
74945;SDS011;63509;45.250;38.102;2024-02-23T06:57:14;31.73;;;10.85;;
74945;SDS011;63509;45.250;38.102;2024-02-23T06:59:42;31.25;;;9.23;;
74945;SDS011;63509;45.250;38.102;2024-02-23T07:02:08;27.65;;;12.50;;
74945;SDS011;63509;45.250;38.102;2024-02-23T07:04:34;43.67;;;12.85;;
74945;SDS011;63509;45.250;38.102;2024-02-23T07:07:00;36.67;;;12.93;;
74945;SDS011;63509;45.250;38.102;2024-02-23T07:09:33;38.80;;;12.88;;
74945;SDS011;63509;45.250;38.102;2024-02-23T07:11:59;29.50;;;12.90;;
74945;SDS011;63509;45.250;38.102;2024-02-23T07:14:26;31.40;;;10.55;;
74945;SDS011;63509;45.250;38.102;2024-02-23T07:16:52;25.83;;;11.50;;
74945;SDS011;63509;45.250;38.102;2024-02-23T07:19:18;30.08;;;13.40;;
74945;SDS011;63509;45.250;38.102;2024-02-23T07:21:46;35.90;;;13.45;;
74945;SDS011;63509;45.250;38.102;2024-02-23T07:24:12;24.20;;;11.95;;
74945;SDS011;63509;45.250;38.102;2024-02-23T07:26:39;28.55;;;12.00;;
74945;SDS011;63509;45.250;38.102;2024-02-23T07:29:05;25.05;;;10.70;;
74945;SDS011;63509;45.250;38.102;2024-02-23T07:31:32;28.45;;;11.30;;
74945;SDS011;63509;45.250;38.102;2024-02-23T07:33:58;38.45;;;13.57;;
74945;SDS011;63509;45.250;38.102;2024-02-23T07:36:24;26.67;;;10.93;;
74945;SDS011;63509;45.250;38.102;2024-02-23T07:38:50;29.70;;;12.30;;
74945;SDS011;63509;45.250;38.102;2024-02-23T07:41:17;32.30;;;11.70;;
74945;SDS011;63509;45.250;38.102;2024-02-23T07:43:46;32.25;;;11.63;;
74945;SDS011;63509;45.250;38.102;2024-02-23T07:46:14;29.13;;;11.55;;
74945;SDS011;63509;45.250;38.102;2024-02-23T07:48:42;28.17;;;11.85;;
74945;SDS011;63509;45.250;38.102;2024-02-23T07:51:08;21.17;;;10.85;;
74945;SDS011;63509;45.250;38.102;2024-02-23T07:53:35;26.13;;;12.55;;
74945;SDS011;63509;45.250;38.102;2024-02-23T07:56:01;29.38;;;11.88;;
74945;SDS011;63509;45.250;38.102;2024-02-23T07:58:28;38.88;;;12.70;;
74945;SDS011;63509;45.250;38.102;2024-02-23T08:00:54;36.80;;;11.95;;
74945;SDS011;63509;45.250;38.102;2024-02-23T08:03:20;33.63;;;12.95;;
74945;SDS011;63509;45.250;38.102;2024-02-23T08:05:47;24.90;;;11.55;;
74945;SDS011;63509;45.250;38.102;2024-02-23T08:08:14;43.92;;;12.50;;
74945;SDS011;63509;45.250;38.102;2024-02-23T08:10:40;29.13;;;12.43;;
74945;SDS011;63509;45.250;38.102;2024-02-23T08:13:06;36.53;;;13.52;;
74945;SDS011;63509;45.250;38.102;2024-02-23T08:15:36;38.08;;;13.00;;
74945;SDS011;63509;45.250;38.102;2024-02-23T08:18:07;30.40;;;12.32;;
74945;SDS011;63509;45.250;38.102;2024-02-23T08:20:32;27.42;;;11.15;;
74945;SDS011;63509;45.250;38.102;2024-02-23T08:22:59;31.30;;;13.20;;
74945;SDS011;63509;45.250;38.102;2024-02-23T08:25:25;38.22;;;13.13;;
74945;SDS011;63509;45.250;38.102;2024-02-23T08:27:54;34.78;;;13.25;;
74945;SDS011;63509;45.250;38.102;2024-02-23T08:30:21;27.60;;;11.73;;
74945;SDS011;63509;45.250;38.102;2024-02-23T08:32:48;36.45;;;12.60;;
74945;SDS011;63509;45.250;38.102;2024-02-23T08:35:14;26.40;;;11.82;;
74945;SDS011;63509;45.250;38.102;2024-02-23T08:37:43;27.25;;;10.93;;
74945;SDS011;63509;45.250;38.102;2024-02-23T08:40:10;23.63;;;11.90;;
74945;SDS011;63509;45.250;38.102;2024-02-23T08:42:37;29.08;;;13.05;;
74945;SDS011;63509;45.250;38.102;2024-02-23T08:45:03;34.63;;;15.27;;
74945;SDS011;63509;45.250;38.102;2024-02-23T08:47:30;29.08;;;12.95;;
74945;SDS011;63509;45.250;38.102;2024-02-23T08:49:57;29.40;;;14.18;;
74945;SDS011;63509;45.250;38.102;2024-02-23T08:52:24;38.75;;;13.13;;
74945;SDS011;63509;45.250;38.102;2024-02-23T08:54:51;29.48;;;13.98;;
74945;SDS011;63509;45.250;38.102;2024-02-23T08:57:17;29.27;;;12.15;;
74945;SDS011;63509;45.250;38.102;2024-02-23T08:59:44;30.15;;;12.23;;
74945;SDS011;63509;45.250;38.102;2024-02-23T09:02:11;37.08;;;14.57;;
74945;SDS011;63509;45.250;38.102;2024-02-23T09:04:37;27.27;;;9.70;;
74945;SDS011;63509;45.250;38.102;2024-02-23T09:07:04;43.38;;;14.05;;
74945;SDS011;63509;45.250;38.102;2024-02-23T09:09:30;32.70;;;14.27;;
74945;SDS011;63509;45.250;38.102;2024-02-23T09:11:56;24.58;;;12.18;;
74945;SDS011;63509;45.250;38.102;2024-02-23T09:14:22;27.17;;;10.93;;
74945;SDS011;63509;45.250;38.102;2024-02-23T09:16:51;29.65;;;13.18;;
74945;SDS011;63509;45.250;38.102;2024-02-23T09:19:18;26.60;;;12.50;;
74945;SDS011;63509;45.250;38.102;2024-02-23T09:21:46;22.05;;;10.57;;
74945;SDS011;63509;45.250;38.102;2024-02-23T09:24:12;19.90;;;9.75;;
74945;SDS011;63509;45.250;38.102;2024-02-23T09:26:38;38.78;;;10.98;;
74945;SDS011;63509;45.250;38.102;2024-02-23T09:29:05;29.63;;;11.90;;
74945;SDS011;63509;45.250;38.102;2024-02-23T09:31:31;25.35;;;9.75;;
74945;SDS011;63509;45.250;38.102;2024-02-23T09:33:58;26.52;;;9.07;;
74945;SDS011;63509;45.250;38.102;2024-02-23T09:36:24;24.05;;;9.70;;
74945;SDS011;63509;45.250;38.102;2024-02-23T09:38:50;36.13;;;9.45;;
74945;SDS011;63509;45.250;38.102;2024-02-23T09:41:20;19.05;;;8.82;;
74945;SDS011;63509;45.250;38.102;2024-02-23T09:43:47;22.15;;;8.63;;
74945;SDS011;63509;45.250;38.102;2024-02-23T09:46:18;18.35;;;7.28;;
74945;SDS011;63509;45.250;38.102;2024-02-23T09:48:45;16.52;;;7.45;;
74945;SDS011;63509;45.250;38.102;2024-02-23T09:51:12;18.27;;;8.80;;
74945;SDS011;63509;45.250;38.102;2024-02-23T09:53:39;18.92;;;6.75;;
74945;SDS011;63509;45.250;38.102;2024-02-23T09:56:06;15.90;;;6.78;;
74945;SDS011;63509;45.250;38.102;2024-02-23T09:58:34;18.10;;;6.38;;
74945;SDS011;63509;45.250;38.102;2024-02-23T10:01:02;16.33;;;6.57;;
74945;SDS011;63509;45.250;38.102;2024-02-23T10:03:29;16.15;;;7.25;;
74945;SDS011;63509;45.250;38.102;2024-02-23T10:05:56;26.40;;;7.85;;
74945;SDS011;63509;45.250;38.102;2024-02-23T10:08:23;21.48;;;7.25;;
74945;SDS011;63509;45.250;38.102;2024-02-23T10:10:49;28.73;;;8.63;;
74945;SDS011;63509;45.250;38.102;2024-02-23T10:13:20;16.10;;;8.27;;
74945;SDS011;63509;45.250;38.102;2024-02-23T10:15:48;21.33;;;6.80;;
74945;SDS011;63509;45.250;38.102;2024-02-23T10:18:14;14.75;;;6.95;;
74945;SDS011;63509;45.250;38.102;2024-02-23T10:20:40;13.35;;;6.13;;
74945;SDS011;63509;45.250;38.102;2024-02-23T10:23:09;16.63;;;7.55;;
74945;SDS011;63509;45.250;38.102;2024-02-23T10:25:36;16.63;;;7.38;;
74945;SDS011;63509;45.250;38.102;2024-02-23T10:28:03;28.08;;;8.32;;
74945;SDS011;63509;45.250;38.102;2024-02-23T10:30:31;16.13;;;7.60;;
74945;SDS011;63509;45.250;38.102;2024-02-23T10:32:57;18.45;;;7.22;;
74945;SDS011;63509;45.250;38.102;2024-02-23T10:35:25;18.08;;;5.88;;
74945;SDS011;63509;45.250;38.102;2024-02-23T10:37:52;13.55;;;6.85;;
74945;SDS011;63509;45.250;38.102;2024-02-23T10:40:21;12.38;;;6.03;;
74945;SDS011;63509;45.250;38.102;2024-02-23T10:42:52;13.27;;;6.18;;
74945;SDS011;63509;45.250;38.102;2024-02-23T10:45:22;12.32;;;4.70;;
74945;SDS011;63509;45.250;38.102;2024-02-23T10:47:48;16.33;;;4.90;;
74945;SDS011;63509;45.250;38.102;2024-02-23T10:50:17;16.02;;;5.20;;
74945;SDS011;63509;45.250;38.102;2024-02-23T10:52:45;23.90;;;6.30;;
74945;SDS011;63509;45.250;38.102;2024-02-23T10:55:14;12.45;;;5.13;;
74945;SDS011;63509;45.250;38.102;2024-02-23T10:57:42;15.98;;;5.80;;
74945;SDS011;63509;45.250;38.102;2024-02-23T11:00:10;16.42;;;5.20;;
74945;SDS011;63509;45.250;38.102;2024-02-23T11:02:43;14.02;;;6.05;;
74945;SDS011;63509;45.250;38.102;2024-02-23T11:05:14;21.25;;;8.18;;
74945;SDS011;63509;45.250;38.102;2024-02-23T11:07:41;13.90;;;6.72;;
74945;SDS011;63509;45.250;38.102;2024-02-23T11:10:08;16.10;;;5.63;;
74945;SDS011;63509;45.250;38.102;2024-02-23T11:12:35;11.93;;;5.05;;
74945;SDS011;63509;45.250;38.102;2024-02-23T11:15:02;19.10;;;5.43;;
74945;SDS011;63509;45.250;38.102;2024-02-23T11:17:32;18.85;;;5.95;;
74945;SDS011;63509;45.250;38.102;2024-02-23T11:20:03;16.20;;;6.70;;
74945;SDS011;63509;45.250;38.102;2024-02-23T11:22:31;14.25;;;6.28;;
74945;SDS011;63509;45.250;38.102;2024-02-23T11:25:04;10.98;;;5.40;;
74945;SDS011;63509;45.250;38.102;2024-02-23T11:27:31;15.48;;;6.93;;
74945;SDS011;63509;45.250;38.102;2024-02-23T11:32:39;10.85;;;3.85;;
74945;SDS011;63509;45.250;38.102;2024-02-23T11:35:07;6.50;;;2.67;;
74945;SDS011;63509;45.250;38.102;2024-02-23T11:40:16;6.90;;;3.67;;
74945;SDS011;63509;45.250;38.102;2024-02-23T11:42:43;12.38;;;4.13;;
74945;SDS011;63509;45.250;38.102;2024-02-23T11:45:10;10.25;;;3.28;;
74945;SDS011;63509;45.250;38.102;2024-02-23T11:47:39;12.25;;;3.50;;
74945;SDS011;63509;45.250;38.102;2024-02-23T11:50:07;9.05;;;3.90;;
74945;SDS011;63509;45.250;38.102;2024-02-23T11:52:37;14.95;;;4.53;;
74945;SDS011;63509;45.250;38.102;2024-02-23T11:55:04;23.25;;;4.88;;
74945;SDS011;63509;45.250;38.102;2024-02-23T11:57:37;7.90;;;4.32;;
74945;SDS011;63509;45.250;38.102;2024-02-23T12:02:36;14.82;;;4.57;;
74945;SDS011;63509;45.250;38.102;2024-02-23T12:05:02;7.63;;;3.83;;
74945;SDS011;63509;45.250;38.102;2024-02-23T12:07:29;17.67;;;4.70;;
74945;SDS011;63509;45.250;38.102;2024-02-23T12:09:56;10.52;;;3.42;;
74945;SDS011;63509;45.250;38.102;2024-02-23T12:12:23;12.13;;;5.30;;
74945;SDS011;63509;45.250;38.102;2024-02-23T12:14:50;24.40;;;4.63;;
74945;SDS011;63509;45.250;38.102;2024-02-23T12:17:20;22.17;;;4.65;;
74945;SDS011;63509;45.250;38.102;2024-02-23T12:19:46;21.23;;;4.15;;
74945;SDS011;63509;45.250;38.102;2024-02-23T12:22:13;17.80;;;4.10;;
74945;SDS011;63509;45.250;38.102;2024-02-23T12:24:40;7.05;;;3.78;;
74945;SDS011;63509;45.250;38.102;2024-02-23T12:27:07;8.13;;;4.10;;
74945;SDS011;63509;45.250;38.102;2024-02-23T12:29:33;11.90;;;4.00;;
74945;SDS011;63509;45.250;38.102;2024-02-23T12:32:03;29.10;;;6.05;;
74945;SDS011;63509;45.250;38.102;2024-02-23T12:34:30;8.90;;;3.22;;
74945;SDS011;63509;45.250;38.102;2024-02-23T12:37:02;10.05;;;2.92;;
74945;SDS011;63509;45.250;38.102;2024-02-23T12:39:29;8.05;;;2.75;;
74945;SDS011;63509;45.250;38.102;2024-02-23T12:41:55;14.95;;;2.35;;
74945;SDS011;63509;45.250;38.102;2024-02-23T12:44:22;11.70;;;3.13;;
74945;SDS011;63509;45.250;38.102;2024-02-23T12:46:48;14.35;;;3.90;;
74945;SDS011;63509;45.250;38.102;2024-02-23T12:49:14;7.65;;;2.83;;
74945;SDS011;63509;45.250;38.102;2024-02-23T12:51:41;10.57;;;4.00;;
74945;SDS011;63509;45.250;38.102;2024-02-23T12:54:07;24.85;;;9.13;;
74945;SDS011;63509;45.250;38.102;2024-02-23T12:56:34;17.20;;;7.53;;
74945;SDS011;63509;45.250;38.102;2024-02-23T12:59:01;14.20;;;4.82;;
74945;SDS011;63509;45.250;38.102;2024-02-23T13:01:27;22.95;;;7.93;;
74945;SDS011;63509;45.250;38.102;2024-02-23T13:03:54;16.50;;;3.78;;
74945;SDS011;63509;45.250;38.102;2024-02-23T13:06:20;12.40;;;4.18;;
74945;SDS011;63509;45.250;38.102;2024-02-23T13:08:47;15.38;;;4.97;;
74945;SDS011;63509;45.250;38.102;2024-02-23T13:11:13;16.60;;;4.00;;
74945;SDS011;63509;45.250;38.102;2024-02-23T13:13:39;7.15;;;3.22;;
74945;SDS011;63509;45.250;38.102;2024-02-23T13:16:05;8.05;;;3.47;;
74945;SDS011;63509;45.250;38.102;2024-02-23T13:18:32;4.45;;;2.22;;
74945;SDS011;63509;45.250;38.102;2024-02-23T13:20:58;12.07;;;2.92;;
74945;SDS011;63509;45.250;38.102;2024-02-23T13:23:24;7.28;;;2.00;;
74945;SDS011;63509;45.250;38.102;2024-02-23T13:25:50;4.45;;;1.77;;
74945;SDS011;63509;45.250;38.102;2024-02-23T13:28:16;13.63;;;2.92;;
74945;SDS011;63509;45.250;38.102;2024-02-23T13:30:42;8.95;;;2.70;;
74945;SDS011;63509;45.250;38.102;2024-02-23T13:33:10;6.38;;;2.60;;
74945;SDS011;63509;45.250;38.102;2024-02-23T13:35:36;7.28;;;3.08;;
74945;SDS011;63509;45.250;38.102;2024-02-23T13:38:04;13.77;;;3.95;;
74945;SDS011;63509;45.250;38.102;2024-02-23T13:40:31;17.75;;;3.75;;
74945;SDS011;63509;45.250;38.102;2024-02-23T13:42:57;12.85;;;2.55;;
74945;SDS011;63509;45.250;38.102;2024-02-23T13:45:23;6.85;;;2.92;;
74945;SDS011;63509;45.250;38.102;2024-02-23T13:47:57;6.75;;;3.25;;
74945;SDS011;63509;45.250;38.102;2024-02-23T13:50:27;13.85;;;2.85;;
74945;SDS011;63509;45.250;38.102;2024-02-23T13:52:55;15.60;;;4.65;;
74945;SDS011;63509;45.250;38.102;2024-02-23T13:55:21;21.80;;;5.07;;
74945;SDS011;63509;45.250;38.102;2024-02-23T13:57:48;14.13;;;5.38;;
74945;SDS011;63509;45.250;38.102;2024-02-23T14:00:15;8.95;;;4.00;;
74945;SDS011;63509;45.250;38.102;2024-02-23T14:02:42;9.77;;;4.32;;
74945;SDS011;63509;45.250;38.102;2024-02-23T14:05:10;17.00;;;4.25;;
74945;SDS011;63509;45.250;38.102;2024-02-23T14:07:36;30.23;;;3.40;;
74945;SDS011;63509;45.250;38.102;2024-02-23T14:10:02;12.15;;;3.95;;
74945;SDS011;63509;45.250;38.102;2024-02-23T14:12:29;18.73;;;4.90;;
74945;SDS011;63509;45.250;38.102;2024-02-23T14:14:55;17.48;;;4.55;;
74945;SDS011;63509;45.250;38.102;2024-02-23T14:17:21;15.20;;;4.20;;
74945;SDS011;63509;45.250;38.102;2024-02-23T14:19:47;12.27;;;3.80;;
74945;SDS011;63509;45.250;38.102;2024-02-23T14:22:13;6.22;;;3.10;;
74945;SDS011;63509;45.250;38.102;2024-02-23T14:24:39;9.27;;;4.05;;